sensor_id;sensor_type;location;lat;lon;timestamp;P1;durP1;ratioP1;P2;durP2;ratioP2
3022;SDS011;1521;53.584;9.938;2022-12-18T00:01:47;31.20;;;17.77;;
3022;SDS011;1521;53.584;9.938;2022-12-18T00:04:23;32.13;;;17.57;;
3022;SDS011;1521;53.584;9.938;2022-12-18T00:06:50;35.93;;;19.10;;
3022;SDS011;1521;53.584;9.938;2022-12-18T00:09:16;34.07;;;17.77;;
3022;SDS011;1521;53.584;9.938;2022-12-18T00:11:42;41.03;;;18.50;;
3022;SDS011;1521;53.584;9.938;2022-12-18T00:14:08;36.93;;;18.37;;
3022;SDS011;1521;53.584;9.938;2022-12-18T00:16:35;35.97;;;17.90;;
3022;SDS011;1521;53.584;9.938;2022-12-18T00:19:02;34.03;;;17.40;;
3022;SDS011;1521;53.584;9.938;2022-12-18T00:21:28;33.80;;;17.97;;
3022;SDS011;1521;53.584;9.938;2022-12-18T00:23:55;35.90;;;17.80;;
3022;SDS011;1521;53.584;9.938;2022-12-18T00:26:23;36.70;;;18.73;;
3022;SDS011;1521;53.584;9.938;2022-12-18T00:28:59;39.67;;;18.70;;
3022;SDS011;1521;53.584;9.938;2022-12-18T00:31:26;35.67;;;18.53;;
3022;SDS011;1521;53.584;9.938;2022-12-18T00:33:53;45.97;;;18.67;;
3022;SDS011;1521;53.584;9.938;2022-12-18T00:36:21;34.83;;;18.20;;
3022;SDS011;1521;53.584;9.938;2022-12-18T00:38:49;31.93;;;17.57;;
3022;SDS011;1521;53.584;9.938;2022-12-18T00:41:15;36.07;;;17.07;;
3022;SDS011;1521;53.584;9.938;2022-12-18T00:44:02;35.27;;;18.97;;
3022;SDS011;1521;53.584;9.938;2022-12-18T00:46:28;32.63;;;16.60;;
3022;SDS011;1521;53.584;9.938;2022-12-18T00:48:54;39.77;;;19.00;;
3022;SDS011;1521;53.584;9.938;2022-12-18T00:51:20;40.60;;;17.80;;
3022;SDS011;1521;53.584;9.938;2022-12-18T00:53:45;31.87;;;16.67;;
3022;SDS011;1521;53.584;9.938;2022-12-18T00:56:11;33.60;;;17.60;;
3022;SDS011;1521;53.584;9.938;2022-12-18T00:58:36;41.30;;;18.90;;
3022;SDS011;1521;53.584;9.938;2022-12-18T01:01:05;37.87;;;18.60;;
3022;SDS011;1521;53.584;9.938;2022-12-18T01:03:31;37.20;;;18.33;;
3022;SDS011;1521;53.584;9.938;2022-12-18T01:05:57;35.13;;;18.17;;
3022;SDS011;1521;53.584;9.938;2022-12-18T01:08:23;34.00;;;18.17;;
3022;SDS011;1521;53.584;9.938;2022-12-18T01:10:48;37.57;;;17.33;;
3022;SDS011;1521;53.584;9.938;2022-12-18T01:13:14;30.93;;;17.50;;
3022;SDS011;1521;53.584;9.938;2022-12-18T01:15:40;36.73;;;19.10;;
3022;SDS011;1521;53.584;9.938;2022-12-18T01:18:06;42.50;;;19.20;;
3022;SDS011;1521;53.584;9.938;2022-12-18T01:20:31;42.23;;;17.90;;
3022;SDS011;1521;53.584;9.938;2022-12-18T01:22:57;38.00;;;19.40;;
3022;SDS011;1521;53.584;9.938;2022-12-18T01:25:23;38.43;;;18.43;;
3022;SDS011;1521;53.584;9.938;2022-12-18T01:27:49;36.57;;;17.93;;
3022;SDS011;1521;53.584;9.938;2022-12-18T01:30:14;33.90;;;16.60;;
3022;SDS011;1521;53.584;9.938;2022-12-18T01:32:40;31.33;;;15.73;;
3022;SDS011;1521;53.584;9.938;2022-12-18T01:35:06;32.23;;;16.67;;
3022;SDS011;1521;53.584;9.938;2022-12-18T01:37:32;28.93;;;15.93;;
3022;SDS011;1521;53.584;9.938;2022-12-18T01:39:57;37.40;;;17.70;;
3022;SDS011;1521;53.584;9.938;2022-12-18T01:42:23;38.43;;;19.13;;
3022;SDS011;1521;53.584;9.938;2022-12-18T01:44:53;39.17;;;19.93;;
3022;SDS011;1521;53.584;9.938;2022-12-18T01:50:15;30.07;;;16.20;;
3022;SDS011;1521;53.584;9.938;2022-12-18T01:55:45;36.20;;;16.10;;
3022;SDS011;1521;53.584;9.938;2022-12-18T01:58:13;31.83;;;16.77;;
3022;SDS011;1521;53.584;9.938;2022-12-18T02:00:40;31.87;;;15.90;;
3022;SDS011;1521;53.584;9.938;2022-12-18T02:03:06;27.80;;;15.27;;
3022;SDS011;1521;53.584;9.938;2022-12-18T02:18:32;29.90;;;15.93;;
3022;SDS011;1521;53.584;9.938;2022-12-18T02:24:29;27.33;;;14.17;;
3022;SDS011;1521;53.584;9.938;2022-12-18T02:27:07;36.03;;;16.50;;
3022;SDS011;1521;53.584;9.938;2022-12-18T02:29:39;34.57;;;17.70;;
3022;SDS011;1521;53.584;9.938;2022-12-18T02:32:10;29.90;;;15.63;;
3022;SDS011;1521;53.584;9.938;2022-12-18T02:34:40;28.43;;;14.53;;
3022;SDS011;1521;53.584;9.938;2022-12-18T02:37:09;27.90;;;14.40;;
3022;SDS011;1521;53.584;9.938;2022-12-18T02:39:39;33.50;;;16.13;;
3022;SDS011;1521;53.584;9.938;2022-12-18T02:42:06;31.13;;;15.27;;
3022;SDS011;1521;53.584;9.938;2022-12-18T02:44:34;31.60;;;16.97;;
3022;SDS011;1521;53.584;9.938;2022-12-18T02:47:08;27.10;;;15.33;;
3022;SDS011;1521;53.584;9.938;2022-12-18T02:49:40;30.73;;;16.27;;
3022;SDS011;1521;53.584;9.938;2022-12-18T03:00:08;32.93;;;15.53;;
3022;SDS011;1521;53.584;9.938;2022-12-18T03:05:43;33.07;;;16.90;;
3022;SDS011;1521;53.584;9.938;2022-12-18T03:08:11;31.33;;;16.40;;
3022;SDS011;1521;53.584;9.938;2022-12-18T03:10:45;29.87;;;15.67;;
3022;SDS011;1521;53.584;9.938;2022-12-18T03:13:20;33.73;;;16.03;;
3022;SDS011;1521;53.584;9.938;2022-12-18T03:15:53;29.77;;;14.43;;
3022;SDS011;1521;53.584;9.938;2022-12-18T03:18:43;24.67;;;14.00;;
3022;SDS011;1521;53.584;9.938;2022-12-18T03:21:16;28.13;;;14.47;;
3022;SDS011;1521;53.584;9.938;2022-12-18T03:23:47;24.47;;;13.50;;
3022;SDS011;1521;53.584;9.938;2022-12-18T03:26:16;25.20;;;14.17;;
3022;SDS011;1521;53.584;9.938;2022-12-18T03:28:55;30.67;;;14.37;;
3022;SDS011;1521;53.584;9.938;2022-12-18T03:31:26;33.33;;;13.90;;
3022;SDS011;1521;53.584;9.938;2022-12-18T03:33:58;26.40;;;14.23;;
3022;SDS011;1521;53.584;9.938;2022-12-18T03:36:28;27.33;;;14.03;;
3022;SDS011;1521;53.584;9.938;2022-12-18T03:38:56;28.80;;;13.43;;
3022;SDS011;1521;53.584;9.938;2022-12-18T03:41:39;29.83;;;13.27;;
3022;SDS011;1521;53.584;9.938;2022-12-18T03:49:57;29.60;;;12.67;;
3022;SDS011;1521;53.584;9.938;2022-12-18T03:52:18;25.07;;;13.33;;
3022;SDS011;1521;53.584;9.938;2022-12-18T03:54:50;26.43;;;13.57;;
3022;SDS011;1521;53.584;9.938;2022-12-18T03:57:20;26.93;;;13.43;;
3022;SDS011;1521;53.584;9.938;2022-12-18T03:59:49;30.77;;;14.10;;
3022;SDS011;1521;53.584;9.938;2022-12-18T04:02:19;27.20;;;13.77;;
3022;SDS011;1521;53.584;9.938;2022-12-18T04:04:47;28.50;;;13.60;;
3022;SDS011;1521;53.584;9.938;2022-12-18T04:07:21;24.90;;;13.57;;
3022;SDS011;1521;53.584;9.938;2022-12-18T04:09:48;23.30;;;12.53;;
3022;SDS011;1521;53.584;9.938;2022-12-18T04:12:15;27.00;;;13.50;;
3022;SDS011;1521;53.584;9.938;2022-12-18T04:14:40;29.67;;;13.87;;
3022;SDS011;1521;53.584;9.938;2022-12-18T04:17:06;28.40;;;13.77;;
3022;SDS011;1521;53.584;9.938;2022-12-18T04:19:32;32.73;;;12.80;;
3022;SDS011;1521;53.584;9.938;2022-12-18T04:21:57;25.77;;;13.77;;
3022;SDS011;1521;53.584;9.938;2022-12-18T04:24:23;28.60;;;14.00;;
3022;SDS011;1521;53.584;9.938;2022-12-18T04:26:48;25.90;;;14.03;;
3022;SDS011;1521;53.584;9.938;2022-12-18T04:29:14;30.07;;;13.33;;
3022;SDS011;1521;53.584;9.938;2022-12-18T04:31:40;29.40;;;13.90;;
3022;SDS011;1521;53.584;9.938;2022-12-18T04:34:05;24.43;;;12.50;;
3022;SDS011;1521;53.584;9.938;2022-12-18T04:36:31;25.00;;;13.20;;
3022;SDS011;1521;53.584;9.938;2022-12-18T04:38:56;24.37;;;12.90;;
3022;SDS011;1521;53.584;9.938;2022-12-18T04:41:22;24.70;;;12.53;;
3022;SDS011;1521;53.584;9.938;2022-12-18T04:43:47;23.53;;;11.80;;
3022;SDS011;1521;53.584;9.938;2022-12-18T04:46:13;36.97;;;12.90;;
3022;SDS011;1521;53.584;9.938;2022-12-18T04:48:39;27.23;;;14.07;;
3022;SDS011;1521;53.584;9.938;2022-12-18T04:51:05;26.70;;;13.47;;
3022;SDS011;1521;53.584;9.938;2022-12-18T04:53:31;29.30;;;13.87;;
3022;SDS011;1521;53.584;9.938;2022-12-18T04:56:04;25.60;;;13.10;;
3022;SDS011;1521;53.584;9.938;2022-12-18T04:58:38;28.07;;;13.87;;
3022;SDS011;1521;53.584;9.938;2022-12-18T05:01:05;33.30;;;13.10;;
3022;SDS011;1521;53.584;9.938;2022-12-18T05:03:32;25.00;;;12.50;;
3022;SDS011;1521;53.584;9.938;2022-12-18T05:05:58;26.80;;;13.90;;
3022;SDS011;1521;53.584;9.938;2022-12-18T05:08:23;32.40;;;13.87;;
3022;SDS011;1521;53.584;9.938;2022-12-18T05:10:49;28.03;;;13.57;;
3022;SDS011;1521;53.584;9.938;2022-12-18T05:13:15;24.20;;;13.17;;
3022;SDS011;1521;53.584;9.938;2022-12-18T05:15:40;25.43;;;13.13;;
3022;SDS011;1521;53.584;9.938;2022-12-18T05:18:07;25.07;;;13.40;;
3022;SDS011;1521;53.584;9.938;2022-12-18T05:20:33;21.03;;;11.60;;
3022;SDS011;1521;53.584;9.938;2022-12-18T05:22:58;23.20;;;13.03;;
3022;SDS011;1521;53.584;9.938;2022-12-18T05:25:24;29.70;;;12.80;;
3022;SDS011;1521;53.584;9.938;2022-12-18T05:27:50;29.67;;;13.70;;
3022;SDS011;1521;53.584;9.938;2022-12-18T05:30:15;21.13;;;12.53;;
3022;SDS011;1521;53.584;9.938;2022-12-18T05:32:41;22.20;;;12.37;;
3022;SDS011;1521;53.584;9.938;2022-12-18T05:35:08;23.33;;;12.60;;
3022;SDS011;1521;53.584;9.938;2022-12-18T05:37:35;28.00;;;12.50;;
3022;SDS011;1521;53.584;9.938;2022-12-18T05:40:01;27.33;;;14.20;;
3022;SDS011;1521;53.584;9.938;2022-12-18T05:42:28;28.23;;;13.03;;
3022;SDS011;1521;53.584;9.938;2022-12-18T05:44:54;30.47;;;13.43;;
3022;SDS011;1521;53.584;9.938;2022-12-18T05:47:19;22.50;;;13.40;;
3022;SDS011;1521;53.584;9.938;2022-12-18T05:49:45;25.67;;;13.30;;
3022;SDS011;1521;53.584;9.938;2022-12-18T05:52:10;22.83;;;12.80;;
3022;SDS011;1521;53.584;9.938;2022-12-18T05:54:36;31.90;;;13.53;;
3022;SDS011;1521;53.584;9.938;2022-12-18T05:57:01;28.33;;;13.97;;
3022;SDS011;1521;53.584;9.938;2022-12-18T05:59:27;30.33;;;13.73;;
3022;SDS011;1521;53.584;9.938;2022-12-18T06:01:53;30.03;;;14.77;;
3022;SDS011;1521;53.584;9.938;2022-12-18T06:04:18;25.10;;;13.80;;
3022;SDS011;1521;53.584;9.938;2022-12-18T06:06:44;32.57;;;15.93;;
3022;SDS011;1521;53.584;9.938;2022-12-18T06:09:09;26.70;;;15.07;;
3022;SDS011;1521;53.584;9.938;2022-12-18T06:11:35;24.77;;;14.23;;
3022;SDS011;1521;53.584;9.938;2022-12-18T06:14:03;27.20;;;15.10;;
3022;SDS011;1521;53.584;9.938;2022-12-18T06:16:30;27.47;;;14.17;;
3022;SDS011;1521;53.584;9.938;2022-12-18T06:18:59;30.77;;;15.00;;
3022;SDS011;1521;53.584;9.938;2022-12-18T06:21:26;31.13;;;16.00;;
3022;SDS011;1521;53.584;9.938;2022-12-18T06:23:52;20.40;;;13.20;;
3022;SDS011;1521;53.584;9.938;2022-12-18T06:26:18;26.20;;;15.60;;
3022;SDS011;1521;53.584;9.938;2022-12-18T06:28:44;35.73;;;15.67;;
3022;SDS011;1521;53.584;9.938;2022-12-18T06:31:09;34.30;;;14.80;;
3022;SDS011;1521;53.584;9.938;2022-12-18T06:33:36;26.43;;;14.67;;
3022;SDS011;1521;53.584;9.938;2022-12-18T06:36:12;26.27;;;14.50;;
3022;SDS011;1521;53.584;9.938;2022-12-18T06:38:38;25.87;;;13.87;;
3022;SDS011;1521;53.584;9.938;2022-12-18T06:41:07;28.00;;;14.70;;
3022;SDS011;1521;53.584;9.938;2022-12-18T06:43:37;28.70;;;14.80;;
3022;SDS011;1521;53.584;9.938;2022-12-18T06:46:03;29.30;;;14.80;;
3022;SDS011;1521;53.584;9.938;2022-12-18T06:48:29;26.90;;;14.00;;
3022;SDS011;1521;53.584;9.938;2022-12-18T06:50:55;30.70;;;15.13;;
3022;SDS011;1521;53.584;9.938;2022-12-18T06:53:21;26.63;;;13.63;;
3022;SDS011;1521;53.584;9.938;2022-12-18T06:55:47;25.13;;;12.70;;
3022;SDS011;1521;53.584;9.938;2022-12-18T06:58:12;30.10;;;14.70;;
3022;SDS011;1521;53.584;9.938;2022-12-18T07:00:38;28.90;;;13.60;;
3022;SDS011;1521;53.584;9.938;2022-12-18T07:03:03;29.13;;;13.87;;
3022;SDS011;1521;53.584;9.938;2022-12-18T07:05:29;23.30;;;13.10;;
3022;SDS011;1521;53.584;9.938;2022-12-18T07:07:55;23.90;;;14.20;;
3022;SDS011;1521;53.584;9.938;2022-12-18T07:10:20;24.30;;;11.90;;
3022;SDS011;1521;53.584;9.938;2022-12-18T07:12:46;21.90;;;12.80;;
3022;SDS011;1521;53.584;9.938;2022-12-18T07:15:11;25.77;;;12.50;;
3022;SDS011;1521;53.584;9.938;2022-12-18T07:17:37;25.67;;;13.60;;
3022;SDS011;1521;53.584;9.938;2022-12-18T07:20:03;26.83;;;12.50;;
3022;SDS011;1521;53.584;9.938;2022-12-18T07:22:29;27.40;;;14.23;;
3022;SDS011;1521;53.584;9.938;2022-12-18T07:24:54;21.23;;;12.10;;
3022;SDS011;1521;53.584;9.938;2022-12-18T07:27:20;31.67;;;13.50;;
3022;SDS011;1521;53.584;9.938;2022-12-18T07:29:46;19.80;;;11.70;;
3022;SDS011;1521;53.584;9.938;2022-12-18T07:32:12;26.43;;;13.23;;
3022;SDS011;1521;53.584;9.938;2022-12-18T07:34:38;23.80;;;12.93;;
3022;SDS011;1521;53.584;9.938;2022-12-18T07:37:03;27.77;;;13.60;;
3022;SDS011;1521;53.584;9.938;2022-12-18T07:39:29;25.13;;;13.60;;
3022;SDS011;1521;53.584;9.938;2022-12-18T07:41:55;29.03;;;13.17;;
3022;SDS011;1521;53.584;9.938;2022-12-18T07:44:39;25.40;;;13.03;;
3022;SDS011;1521;53.584;9.938;2022-12-18T07:47:05;23.97;;;13.80;;
3022;SDS011;1521;53.584;9.938;2022-12-18T07:49:30;24.40;;;13.63;;
3022;SDS011;1521;53.584;9.938;2022-12-18T07:51:56;29.97;;;14.23;;
3022;SDS011;1521;53.584;9.938;2022-12-18T07:54:23;22.87;;;13.93;;
3022;SDS011;1521;53.584;9.938;2022-12-18T07:56:49;29.20;;;13.67;;
3022;SDS011;1521;53.584;9.938;2022-12-18T07:59:15;28.23;;;14.60;;
3022;SDS011;1521;53.584;9.938;2022-12-18T08:01:41;25.10;;;14.33;;
3022;SDS011;1521;53.584;9.938;2022-12-18T08:04:07;27.10;;;14.43;;
3022;SDS011;1521;53.584;9.938;2022-12-18T08:06:32;29.13;;;14.07;;
3022;SDS011;1521;53.584;9.938;2022-12-18T08:08:58;23.43;;;14.03;;
3022;SDS011;1521;53.584;9.938;2022-12-18T08:11:24;29.77;;;14.97;;
3022;SDS011;1521;53.584;9.938;2022-12-18T08:13:51;35.23;;;13.80;;
3022;SDS011;1521;53.584;9.938;2022-12-18T08:16:17;27.53;;;14.07;;
3022;SDS011;1521;53.584;9.938;2022-12-18T08:18:44;22.10;;;13.10;;
3022;SDS011;1521;53.584;9.938;2022-12-18T08:21:16;25.40;;;14.07;;
3022;SDS011;1521;53.584;9.938;2022-12-18T08:23:45;30.57;;;13.97;;
3022;SDS011;1521;53.584;9.938;2022-12-18T08:26:12;26.50;;;13.40;;
3022;SDS011;1521;53.584;9.938;2022-12-18T08:28:38;34.40;;;13.73;;
3022;SDS011;1521;53.584;9.938;2022-12-18T08:31:04;25.60;;;13.17;;
3022;SDS011;1521;53.584;9.938;2022-12-18T08:33:30;22.13;;;12.60;;
3022;SDS011;1521;53.584;9.938;2022-12-18T08:35:57;23.30;;;11.80;;
3022;SDS011;1521;53.584;9.938;2022-12-18T08:38:23;28.80;;;14.73;;
3022;SDS011;1521;53.584;9.938;2022-12-18T08:40:49;24.60;;;12.47;;
3022;SDS011;1521;53.584;9.938;2022-12-18T08:43:19;27.30;;;13.63;;
3022;SDS011;1521;53.584;9.938;2022-12-18T08:46:03;22.50;;;12.40;;
3022;SDS011;1521;53.584;9.938;2022-12-18T08:48:29;23.83;;;12.70;;
3022;SDS011;1521;53.584;9.938;2022-12-18T08:50:57;22.53;;;12.83;;
3022;SDS011;1521;53.584;9.938;2022-12-18T08:53:24;23.17;;;12.83;;
3022;SDS011;1521;53.584;9.938;2022-12-18T08:55:51;26.53;;;13.57;;
3022;SDS011;1521;53.584;9.938;2022-12-18T08:58:17;24.43;;;12.80;;
3022;SDS011;1521;53.584;9.938;2022-12-18T09:00:42;26.10;;;13.43;;
3022;SDS011;1521;53.584;9.938;2022-12-18T09:03:12;28.37;;;12.83;;
3022;SDS011;1521;53.584;9.938;2022-12-18T09:05:41;23.03;;;13.00;;
3022;SDS011;1521;53.584;9.938;2022-12-18T09:08:06;25.60;;;12.70;;
3022;SDS011;1521;53.584;9.938;2022-12-18T09:10:32;25.33;;;13.10;;
3022;SDS011;1521;53.584;9.938;2022-12-18T09:12:58;22.10;;;12.20;;
3022;SDS011;1521;53.584;9.938;2022-12-18T09:15:23;24.73;;;12.10;;
3022;SDS011;1521;53.584;9.938;2022-12-18T09:17:50;29.37;;;14.47;;
3022;SDS011;1521;53.584;9.938;2022-12-18T09:20:17;20.53;;;12.90;;
3022;SDS011;1521;53.584;9.938;2022-12-18T09:22:43;24.97;;;13.30;;
3022;SDS011;1521;53.584;9.938;2022-12-18T09:25:09;25.27;;;14.30;;
3022;SDS011;1521;53.584;9.938;2022-12-18T09:27:35;23.60;;;14.20;;
3022;SDS011;1521;53.584;9.938;2022-12-18T09:30:01;28.90;;;12.77;;
3022;SDS011;1521;53.584;9.938;2022-12-18T09:32:26;25.57;;;12.93;;
3022;SDS011;1521;53.584;9.938;2022-12-18T09:34:52;20.10;;;12.07;;
3022;SDS011;1521;53.584;9.938;2022-12-18T09:37:18;23.10;;;12.97;;
3022;SDS011;1521;53.584;9.938;2022-12-18T09:39:43;25.10;;;13.20;;
3022;SDS011;1521;53.584;9.938;2022-12-18T09:42:12;22.67;;;14.53;;
3022;SDS011;1521;53.584;9.938;2022-12-18T09:44:45;22.90;;;12.20;;
3022;SDS011;1521;53.584;9.938;2022-12-18T09:47:19;24.37;;;13.07;;
3022;SDS011;1521;53.584;9.938;2022-12-18T09:49:53;27.27;;;13.40;;
3022;SDS011;1521;53.584;9.938;2022-12-18T09:52:26;24.17;;;13.70;;
3022;SDS011;1521;53.584;9.938;2022-12-18T09:55:08;21.27;;;13.27;;
3022;SDS011;1521;53.584;9.938;2022-12-18T09:57:45;23.93;;;12.67;;
3022;SDS011;1521;53.584;9.938;2022-12-18T10:00:19;21.60;;;12.37;;
3022;SDS011;1521;53.584;9.938;2022-12-18T10:02:47;22.00;;;12.20;;
3022;SDS011;1521;53.584;9.938;2022-12-18T10:05:17;25.97;;;12.43;;
3022;SDS011;1521;53.584;9.938;2022-12-18T10:07:54;21.97;;;12.80;;
3022;SDS011;1521;53.584;9.938;2022-12-18T10:10:23;30.97;;;13.97;;
3022;SDS011;1521;53.584;9.938;2022-12-18T10:21:44;19.40;;;12.13;;
3022;SDS011;1521;53.584;9.938;2022-12-18T10:26:41;26.17;;;14.13;;
3022;SDS011;1521;53.584;9.938;2022-12-18T10:29:11;21.67;;;13.83;;
3022;SDS011;1521;53.584;9.938;2022-12-18T10:31:38;18.93;;;12.67;;
3022;SDS011;1521;53.584;9.938;2022-12-18T10:34:04;19.60;;;12.50;;
3022;SDS011;1521;53.584;9.938;2022-12-18T10:36:33;17.87;;;11.23;;
3022;SDS011;1521;53.584;9.938;2022-12-18T10:42:08;21.90;;;12.77;;
3022;SDS011;1521;53.584;9.938;2022-12-18T10:44:44;21.10;;;12.60;;
3022;SDS011;1521;53.584;9.938;2022-12-18T10:47:12;62.43;;;31.50;;
3022;SDS011;1521;53.584;9.938;2022-12-18T10:49:49;23.07;;;13.13;;
3022;SDS011;1521;53.584;9.938;2022-12-18T10:52:23;19.87;;;11.93;;
3022;SDS011;1521;53.584;9.938;2022-12-18T10:54:59;22.60;;;13.00;;
3022;SDS011;1521;53.584;9.938;2022-12-18T10:57:32;22.80;;;13.23;;
3022;SDS011;1521;53.584;9.938;2022-12-18T11:00:00;18.90;;;11.53;;
3022;SDS011;1521;53.584;9.938;2022-12-18T11:02:44;23.30;;;12.03;;
3022;SDS011;1521;53.584;9.938;2022-12-18T11:05:27;22.37;;;13.10;;
3022;SDS011;1521;53.584;9.938;2022-12-18T11:07:56;21.60;;;11.20;;
3022;SDS011;1521;53.584;9.938;2022-12-18T11:10:26;19.83;;;11.73;;
3022;SDS011;1521;53.584;9.938;2022-12-18T11:13:09;20.20;;;11.57;;
3022;SDS011;1521;53.584;9.938;2022-12-18T11:15:45;17.97;;;12.23;;
3022;SDS011;1521;53.584;9.938;2022-12-18T11:18:30;17.97;;;12.23;;
3022;SDS011;1521;53.584;9.938;2022-12-18T11:21:00;20.03;;;11.67;;
3022;SDS011;1521;53.584;9.938;2022-12-18T11:23:37;20.30;;;12.40;;
3022;SDS011;1521;53.584;9.938;2022-12-18T11:26:16;19.90;;;12.20;;
3022;SDS011;1521;53.584;9.938;2022-12-18T11:28:49;24.27;;;12.33;;
3022;SDS011;1521;53.584;9.938;2022-12-18T11:31:29;25.63;;;12.83;;
3022;SDS011;1521;53.584;9.938;2022-12-18T11:34:09;18.77;;;12.40;;
3022;SDS011;1521;53.584;9.938;2022-12-18T11:36:39;26.40;;;13.17;;
3022;SDS011;1521;53.584;9.938;2022-12-18T11:39:12;19.80;;;11.90;;
3022;SDS011;1521;53.584;9.938;2022-12-18T11:41:49;23.07;;;12.50;;
3022;SDS011;1521;53.584;9.938;2022-12-18T11:44:45;22.47;;;12.90;;
3022;SDS011;1521;53.584;9.938;2022-12-18T11:50:05;22.10;;;11.83;;
3022;SDS011;1521;53.584;9.938;2022-12-18T11:52:41;27.60;;;12.53;;
3022;SDS011;1521;53.584;9.938;2022-12-18T11:55:11;22.20;;;12.10;;
3022;SDS011;1521;53.584;9.938;2022-12-18T12:00:20;22.37;;;11.50;;
3022;SDS011;1521;53.584;9.938;2022-12-18T12:08:05;18.90;;;11.87;;
3022;SDS011;1521;53.584;9.938;2022-12-18T12:13:38;21.40;;;12.03;;
3022;SDS011;1521;53.584;9.938;2022-12-18T12:16:17;26.07;;;13.27;;
3022;SDS011;1521;53.584;9.938;2022-12-18T12:21:46;26.10;;;14.27;;
3022;SDS011;1521;53.584;9.938;2022-12-18T12:24:37;27.30;;;13.87;;
3022;SDS011;1521;53.584;9.938;2022-12-18T12:40:19;26.60;;;14.67;;
3022;SDS011;1521;53.584;9.938;2022-12-18T12:42:51;25.70;;;14.77;;
3022;SDS011;1521;53.584;9.938;2022-12-18T12:48:24;33.17;;;14.73;;
3022;SDS011;1521;53.584;9.938;2022-12-18T12:51:04;23.13;;;14.40;;
3022;SDS011;1521;53.584;9.938;2022-12-18T12:53:45;26.70;;;14.77;;
3022;SDS011;1521;53.584;9.938;2022-12-18T12:56:11;25.83;;;13.30;;
3022;SDS011;1521;53.584;9.938;2022-12-18T13:01:19;29.97;;;14.87;;
3022;SDS011;1521;53.584;9.938;2022-12-18T13:09:37;31.23;;;15.07;;
3022;SDS011;1521;53.584;9.938;2022-12-18T13:12:36;25.80;;;14.23;;
3022;SDS011;1521;53.584;9.938;2022-12-18T13:15:21;23.30;;;13.07;;
3022;SDS011;1521;53.584;9.938;2022-12-18T13:17:54;25.93;;;14.23;;
3022;SDS011;1521;53.584;9.938;2022-12-18T13:20:32;25.20;;;13.90;;
3022;SDS011;1521;53.584;9.938;2022-12-18T13:23:00;22.83;;;13.10;;
3022;SDS011;1521;53.584;9.938;2022-12-18T13:25:33;31.80;;;15.47;;
3022;SDS011;1521;53.584;9.938;2022-12-18T13:28:09;29.10;;;14.50;;
3022;SDS011;1521;53.584;9.938;2022-12-18T13:38:53;32.73;;;16.33;;
3022;SDS011;1521;53.584;9.938;2022-12-18T13:43:44;32.63;;;16.00;;
3022;SDS011;1521;53.584;9.938;2022-12-18T13:46:41;34.43;;;16.70;;
3022;SDS011;1521;53.584;9.938;2022-12-18T13:51:39;40.13;;;17.20;;
3022;SDS011;1521;53.584;9.938;2022-12-18T13:54:28;35.73;;;16.87;;
3022;SDS011;1521;53.584;9.938;2022-12-18T13:57:00;34.00;;;16.53;;
3022;SDS011;1521;53.584;9.938;2022-12-18T13:59:36;43.83;;;17.17;;
3022;SDS011;1521;53.584;9.938;2022-12-18T14:02:18;38.80;;;16.37;;
3022;SDS011;1521;53.584;9.938;2022-12-18T14:04:47;35.97;;;16.80;;
3022;SDS011;1521;53.584;9.938;2022-12-18T14:07:18;36.33;;;16.57;;
3022;SDS011;1521;53.584;9.938;2022-12-18T14:09:58;38.60;;;16.83;;
3022;SDS011;1521;53.584;9.938;2022-12-18T14:12:26;32.13;;;15.73;;
3022;SDS011;1521;53.584;9.938;2022-12-18T14:17:54;35.47;;;16.90;;
3022;SDS011;1521;53.584;9.938;2022-12-18T14:20:24;38.10;;;16.70;;
3022;SDS011;1521;53.584;9.938;2022-12-18T14:22:51;33.47;;;15.53;;
3022;SDS011;1521;53.584;9.938;2022-12-18T14:25:21;38.80;;;16.57;;
3022;SDS011;1521;53.584;9.938;2022-12-18T14:28:30;33.97;;;15.60;;
3022;SDS011;1521;53.584;9.938;2022-12-18T14:30:40;42.47;;;16.10;;
3022;SDS011;1521;53.584;9.938;2022-12-18T14:33:11;37.97;;;17.10;;
3022;SDS011;1521;53.584;9.938;2022-12-18T14:35:41;42.20;;;16.60;;
3022;SDS011;1521;53.584;9.938;2022-12-18T14:40:56;34.93;;;16.30;;
3022;SDS011;1521;53.584;9.938;2022-12-18T14:43:23;39.23;;;17.93;;
3022;SDS011;1521;53.584;9.938;2022-12-18T14:45:50;37.27;;;17.90;;
3022;SDS011;1521;53.584;9.938;2022-12-18T14:51:03;39.07;;;16.70;;
3022;SDS011;1521;53.584;9.938;2022-12-18T14:53:32;37.27;;;15.90;;
3022;SDS011;1521;53.584;9.938;2022-12-18T14:56:13;43.23;;;19.33;;
3022;SDS011;1521;53.584;9.938;2022-12-18T14:58:43;40.60;;;17.93;;
3022;SDS011;1521;53.584;9.938;2022-12-18T15:01:27;44.47;;;18.50;;
3022;SDS011;1521;53.584;9.938;2022-12-18T15:03:55;45.23;;;18.33;;
3022;SDS011;1521;53.584;9.938;2022-12-18T15:06:26;39.97;;;18.03;;
3022;SDS011;1521;53.584;9.938;2022-12-18T15:08:55;50.90;;;19.83;;
3022;SDS011;1521;53.584;9.938;2022-12-18T15:11:30;50.57;;;19.37;;
3022;SDS011;1521;53.584;9.938;2022-12-18T15:17:04;45.57;;;18.53;;
3022;SDS011;1521;53.584;9.938;2022-12-18T15:19:44;41.90;;;18.20;;
3022;SDS011;1521;53.584;9.938;2022-12-18T15:24:46;48.33;;;19.07;;
3022;SDS011;1521;53.584;9.938;2022-12-18T15:27:31;41.23;;;18.33;;
3022;SDS011;1521;53.584;9.938;2022-12-18T15:30:11;45.93;;;21.30;;
3022;SDS011;1521;53.584;9.938;2022-12-18T15:32:45;47.30;;;20.07;;
3022;SDS011;1521;53.584;9.938;2022-12-18T15:37:50;49.67;;;19.80;;
3022;SDS011;1521;53.584;9.938;2022-12-18T15:40:18;45.87;;;20.47;;
3022;SDS011;1521;53.584;9.938;2022-12-18T15:42:45;52.50;;;21.30;;
3022;SDS011;1521;53.584;9.938;2022-12-18T15:45:30;51.70;;;19.67;;
3022;SDS011;1521;53.584;9.938;2022-12-18T15:47:57;53.60;;;20.00;;
3022;SDS011;1521;53.584;9.938;2022-12-18T15:50:22;47.30;;;20.77;;
3022;SDS011;1521;53.584;9.938;2022-12-18T15:52:49;53.17;;;20.97;;
3022;SDS011;1521;53.584;9.938;2022-12-18T15:55:18;55.00;;;21.43;;
3022;SDS011;1521;53.584;9.938;2022-12-18T15:58:04;44.80;;;19.43;;
3022;SDS011;1521;53.584;9.938;2022-12-18T16:00:31;45.47;;;18.77;;
3022;SDS011;1521;53.584;9.938;2022-12-18T16:02:58;46.97;;;20.70;;
3022;SDS011;1521;53.584;9.938;2022-12-18T16:05:24;56.63;;;20.33;;
3022;SDS011;1521;53.584;9.938;2022-12-18T16:07:52;50.67;;;19.60;;
3022;SDS011;1521;53.584;9.938;2022-12-18T16:10:18;42.67;;;19.40;;
3022;SDS011;1521;53.584;9.938;2022-12-18T16:12:44;46.23;;;20.03;;
3022;SDS011;1521;53.584;9.938;2022-12-18T16:15:10;53.40;;;20.27;;
3022;SDS011;1521;53.584;9.938;2022-12-18T16:17:38;50.67;;;19.43;;
3022;SDS011;1521;53.584;9.938;2022-12-18T16:20:18;51.30;;;20.57;;
3022;SDS011;1521;53.584;9.938;2022-12-18T16:22:45;43.67;;;17.93;;
3022;SDS011;1521;53.584;9.938;2022-12-18T16:25:17;45.90;;;18.60;;
3022;SDS011;1521;53.584;9.938;2022-12-18T16:27:48;49.03;;;18.70;;
3022;SDS011;1521;53.584;9.938;2022-12-18T16:30:18;48.33;;;19.33;;
3022;SDS011;1521;53.584;9.938;2022-12-18T16:32:45;44.83;;;18.77;;
3022;SDS011;1521;53.584;9.938;2022-12-18T16:35:11;45.17;;;19.37;;
3022;SDS011;1521;53.584;9.938;2022-12-18T16:37:39;46.10;;;19.67;;
3022;SDS011;1521;53.584;9.938;2022-12-18T16:40:06;46.23;;;18.83;;
3022;SDS011;1521;53.584;9.938;2022-12-18T16:42:33;46.87;;;19.73;;
3022;SDS011;1521;53.584;9.938;2022-12-18T16:45:00;49.17;;;20.20;;
3022;SDS011;1521;53.584;9.938;2022-12-18T16:47:25;41.17;;;17.50;;
3022;SDS011;1521;53.584;9.938;2022-12-18T16:49:51;51.90;;;20.20;;
3022;SDS011;1521;53.584;9.938;2022-12-18T16:52:17;48.60;;;20.03;;
3022;SDS011;1521;53.584;9.938;2022-12-18T16:54:43;40.80;;;17.63;;
3022;SDS011;1521;53.584;9.938;2022-12-18T16:57:12;48.20;;;19.40;;
3022;SDS011;1521;53.584;9.938;2022-12-18T16:59:40;50.47;;;19.30;;
3022;SDS011;1521;53.584;9.938;2022-12-18T17:02:08;50.63;;;19.60;;
3022;SDS011;1521;53.584;9.938;2022-12-18T17:04:41;41.80;;;18.50;;
3022;SDS011;1521;53.584;9.938;2022-12-18T17:07:07;42.50;;;16.57;;